sensor_id;sensor_type;location;lat;lon;timestamp;P1;durP1;ratioP1;P2;durP2;ratioP2
73266;SDS011;61495;53.400;7.608;2023-07-20T00:02:22;4.20;;;1.20;;
73266;SDS011;61495;53.400;7.608;2023-07-20T00:04:48;3.33;;;1.60;;
73266;SDS011;61495;53.400;7.608;2023-07-20T00:07:13;3.35;;;1.25;;
73266;SDS011;61495;53.400;7.608;2023-07-20T00:09:39;2.42;;;1.17;;
73266;SDS011;61495;53.400;7.608;2023-07-20T00:12:04;2.78;;;1.30;;
73266;SDS011;61495;53.400;7.608;2023-07-20T00:14:30;3.60;;;1.33;;
73266;SDS011;61495;53.400;7.608;2023-07-20T00:16:56;2.97;;;1.40;;
73266;SDS011;61495;53.400;7.608;2023-07-20T00:19:26;3.92;;;1.83;;
73266;SDS011;61495;53.400;7.608;2023-07-20T00:21:52;3.38;;;1.63;;
73266;SDS011;61495;53.400;7.608;2023-07-20T00:24:18;3.35;;;1.40;;
73266;SDS011;61495;53.400;7.608;2023-07-20T00:26:43;3.47;;;1.50;;
73266;SDS011;61495;53.400;7.608;2023-07-20T00:29:10;3.15;;;1.50;;
73266;SDS011;61495;53.400;7.608;2023-07-20T00:31:35;4.15;;;1.92;;
73266;SDS011;61495;53.400;7.608;2023-07-20T00:34:02;2.67;;;1.27;;
73266;SDS011;61495;53.400;7.608;2023-07-20T00:36:31;2.85;;;1.80;;
73266;SDS011;61495;53.400;7.608;2023-07-20T00:38:56;2.83;;;1.63;;
73266;SDS011;61495;53.400;7.608;2023-07-20T00:41:22;4.30;;;1.80;;
73266;SDS011;61495;53.400;7.608;2023-07-20T00:43:47;4.38;;;2.17;;
73266;SDS011;61495;53.400;7.608;2023-07-20T00:46:13;3.40;;;1.52;;
73266;SDS011;61495;53.400;7.608;2023-07-20T00:48:39;3.45;;;1.80;;
73266;SDS011;61495;53.400;7.608;2023-07-20T00:51:05;3.60;;;1.65;;
73266;SDS011;61495;53.400;7.608;2023-07-20T00:53:31;2.60;;;1.27;;
73266;SDS011;61495;53.400;7.608;2023-07-20T00:55:57;2.35;;;1.00;;
73266;SDS011;61495;53.400;7.608;2023-07-20T00:58:23;2.10;;;0.80;;
73266;SDS011;61495;53.400;7.608;2023-07-20T01:00:49;2.58;;;1.33;;
73266;SDS011;61495;53.400;7.608;2023-07-20T01:03:14;3.42;;;1.70;;
73266;SDS011;61495;53.400;7.608;2023-07-20T01:08:36;3.10;;;1.63;;
73266;SDS011;61495;53.400;7.608;2023-07-20T01:11:10;2.58;;;1.42;;
73266;SDS011;61495;53.400;7.608;2023-07-20T01:13:42;3.53;;;1.00;;
73266;SDS011;61495;53.400;7.608;2023-07-20T01:16:08;3.72;;;1.45;;
73266;SDS011;61495;53.400;7.608;2023-07-20T01:18:34;2.63;;;1.45;;
73266;SDS011;61495;53.400;7.608;2023-07-20T01:21:00;3.13;;;1.40;;
73266;SDS011;61495;53.400;7.608;2023-07-20T01:23:39;2.72;;;0.90;;
73266;SDS011;61495;53.400;7.608;2023-07-20T01:26:47;3.20;;;1.65;;
73266;SDS011;61495;53.400;7.608;2023-07-20T01:31:58;3.37;;;1.60;;
73266;SDS011;61495;53.400;7.608;2023-07-20T01:34:28;4.82;;;1.67;;
73266;SDS011;61495;53.400;7.608;2023-07-20T01:36:55;2.75;;;1.88;;
73266;SDS011;61495;53.400;7.608;2023-07-20T01:39:27;2.65;;;1.83;;
73266;SDS011;61495;53.400;7.608;2023-07-20T01:42:21;2.78;;;1.65;;
73266;SDS011;61495;53.400;7.608;2023-07-20T01:45:03;3.35;;;1.40;;
73266;SDS011;61495;53.400;7.608;2023-07-20T01:47:47;3.72;;;1.45;;
73266;SDS011;61495;53.400;7.608;2023-07-20T01:50:30;4.82;;;1.50;;
73266;SDS011;61495;53.400;7.608;2023-07-20T01:55:47;3.90;;;1.80;;
73266;SDS011;61495;53.400;7.608;2023-07-20T01:58:22;2.58;;;1.20;;
73266;SDS011;61495;53.400;7.608;2023-07-20T02:00:47;2.75;;;1.23;;
73266;SDS011;61495;53.400;7.608;2023-07-20T02:03:13;4.72;;;1.55;;
73266;SDS011;61495;53.400;7.608;2023-07-20T02:05:38;3.17;;;1.70;;
73266;SDS011;61495;53.400;7.608;2023-07-20T02:08:04;3.60;;;1.58;;
73266;SDS011;61495;53.400;7.608;2023-07-20T02:10:30;2.75;;;1.80;;
73266;SDS011;61495;53.400;7.608;2023-07-20T02:12:55;2.75;;;1.52;;
73266;SDS011;61495;53.400;7.608;2023-07-20T02:15:21;3.78;;;1.20;;
73266;SDS011;61495;53.400;7.608;2023-07-20T02:17:47;3.63;;;1.90;;
73266;SDS011;61495;53.400;7.608;2023-07-20T02:20:12;3.10;;;1.85;;
73266;SDS011;61495;53.400;7.608;2023-07-20T02:22:38;4.40;;;1.70;;
73266;SDS011;61495;53.400;7.608;2023-07-20T02:25:05;4.20;;;1.83;;
73266;SDS011;61495;53.400;7.608;2023-07-20T02:27:32;2.65;;;1.13;;
73266;SDS011;61495;53.400;7.608;2023-07-20T02:29:58;3.17;;;1.60;;
73266;SDS011;61495;53.400;7.608;2023-07-20T02:32:23;3.15;;;1.95;;
73266;SDS011;61495;53.400;7.608;2023-07-20T02:34:48;5.55;;;1.90;;
73266;SDS011;61495;53.400;7.608;2023-07-20T02:37:14;3.60;;;1.25;;
73266;SDS011;61495;53.400;7.608;2023-07-20T02:39:39;3.53;;;1.40;;
73266;SDS011;61495;53.400;7.608;2023-07-20T02:42:05;4.07;;;2.28;;
73266;SDS011;61495;53.400;7.608;2023-07-20T02:44:30;2.63;;;1.70;;
73266;SDS011;61495;53.400;7.608;2023-07-20T02:46:56;2.75;;;1.25;;
73266;SDS011;61495;53.400;7.608;2023-07-20T02:49:21;4.07;;;1.33;;
73266;SDS011;61495;53.400;7.608;2023-07-20T02:51:47;2.78;;;1.75;;
73266;SDS011;61495;53.400;7.608;2023-07-20T02:54:12;2.95;;;1.83;;
73266;SDS011;61495;53.400;7.608;2023-07-20T02:56:37;2.30;;;1.45;;
73266;SDS011;61495;53.400;7.608;2023-07-20T02:59:03;2.95;;;1.02;;
73266;SDS011;61495;53.400;7.608;2023-07-20T03:01:29;3.00;;;1.67;;
73266;SDS011;61495;53.400;7.608;2023-07-20T03:03:54;3.72;;;1.45;;
73266;SDS011;61495;53.400;7.608;2023-07-20T03:06:20;3.00;;;1.45;;
73266;SDS011;61495;53.400;7.608;2023-07-20T03:08:46;2.33;;;1.33;;
73266;SDS011;61495;53.400;7.608;2023-07-20T03:11:17;2.13;;;1.25;;
73266;SDS011;61495;53.400;7.608;2023-07-20T03:13:44;2.60;;;1.08;;
73266;SDS011;61495;53.400;7.608;2023-07-20T03:16:10;2.10;;;1.00;;
73266;SDS011;61495;53.400;7.608;2023-07-20T03:18:37;3.17;;;1.75;;
73266;SDS011;61495;53.400;7.608;2023-07-20T03:21:03;2.05;;;1.15;;
73266;SDS011;61495;53.400;7.608;2023-07-20T03:23:32;1.52;;;1.10;;
73266;SDS011;61495;53.400;7.608;2023-07-20T03:25:58;1.20;;;0.77;;
73266;SDS011;61495;53.400;7.608;2023-07-20T03:28:23;1.33;;;0.88;;
73266;SDS011;61495;53.400;7.608;2023-07-20T03:30:55;2.72;;;0.90;;
73266;SDS011;61495;53.400;7.608;2023-07-20T03:33:22;2.20;;;1.10;;
73266;SDS011;61495;53.400;7.608;2023-07-20T03:35:50;2.10;;;1.23;;
73266;SDS011;61495;53.400;7.608;2023-07-20T03:38:15;3.38;;;1.27;;
73266;SDS011;61495;53.400;7.608;2023-07-20T03:40:49;2.75;;;1.50;;
73266;SDS011;61495;53.400;7.608;2023-07-20T03:43:18;3.40;;;1.00;;
73266;SDS011;61495;53.400;7.608;2023-07-20T03:45:44;2.30;;;1.40;;
73266;SDS011;61495;53.400;7.608;2023-07-20T03:48:10;3.25;;;1.30;;
73266;SDS011;61495;53.400;7.608;2023-07-20T03:50:36;2.95;;;1.38;;
73266;SDS011;61495;53.400;7.608;2023-07-20T03:53:02;3.78;;;1.27;;
73266;SDS011;61495;53.400;7.608;2023-07-20T03:55:27;1.90;;;1.00;;
73266;SDS011;61495;53.400;7.608;2023-07-20T03:57:53;2.10;;;1.10;;
73266;SDS011;61495;53.400;7.608;2023-07-20T04:00:18;1.77;;;0.77;;
73266;SDS011;61495;53.400;7.608;2023-07-20T04:02:44;2.33;;;1.25;;
73266;SDS011;61495;53.400;7.608;2023-07-20T04:05:09;1.45;;;0.80;;
73266;SDS011;61495;53.400;7.608;2023-07-20T04:07:35;2.83;;;1.38;;
73266;SDS011;61495;53.400;7.608;2023-07-20T04:10:00;1.88;;;0.93;;
73266;SDS011;61495;53.400;7.608;2023-07-20T04:12:26;3.60;;;1.75;;
73266;SDS011;61495;53.400;7.608;2023-07-20T04:14:51;2.80;;;1.42;;
73266;SDS011;61495;53.400;7.608;2023-07-20T04:17:16;9.32;;;1.33;;
73266;SDS011;61495;53.400;7.608;2023-07-20T04:19:42;3.05;;;1.77;;
73266;SDS011;61495;53.400;7.608;2023-07-20T04:22:08;2.75;;;1.45;;
73266;SDS011;61495;53.400;7.608;2023-07-20T04:24:33;4.63;;;1.23;;
73266;SDS011;61495;53.400;7.608;2023-07-20T04:26:58;5.65;;;2.40;;
73266;SDS011;61495;53.400;7.608;2023-07-20T04:29:24;3.03;;;1.45;;
73266;SDS011;61495;53.400;7.608;2023-07-20T04:31:49;2.33;;;1.08;;
73266;SDS011;61495;53.400;7.608;2023-07-20T04:34:15;3.08;;;1.52;;
73266;SDS011;61495;53.400;7.608;2023-07-20T04:36:40;2.53;;;1.23;;
73266;SDS011;61495;53.400;7.608;2023-07-20T04:39:05;3.28;;;1.10;;
73266;SDS011;61495;53.400;7.608;2023-07-20T04:41:33;3.78;;;1.40;;
73266;SDS011;61495;53.400;7.608;2023-07-20T04:43:58;3.55;;;1.30;;
73266;SDS011;61495;53.400;7.608;2023-07-20T04:46:24;5.82;;;1.50;;
73266;SDS011;61495;53.400;7.608;2023-07-20T04:48:49;2.78;;;1.10;;
73266;SDS011;61495;53.400;7.608;2023-07-20T04:51:14;3.40;;;1.55;;
73266;SDS011;61495;53.400;7.608;2023-07-20T04:53:42;3.97;;;1.48;;
73266;SDS011;61495;53.400;7.608;2023-07-20T04:56:07;5.28;;;1.35;;
73266;SDS011;61495;53.400;7.608;2023-07-20T04:58:33;3.97;;;1.80;;
73266;SDS011;61495;53.400;7.608;2023-07-20T05:00:58;3.13;;;1.30;;
73266;SDS011;61495;53.400;7.608;2023-07-20T05:03:24;4.28;;;2.00;;
73266;SDS011;61495;53.400;7.608;2023-07-20T05:05:49;3.13;;;1.80;;
73266;SDS011;61495;53.400;7.608;2023-07-20T05:08:15;2.55;;;1.20;;
73266;SDS011;61495;53.400;7.608;2023-07-20T05:10:41;2.75;;;1.50;;
73266;SDS011;61495;53.400;7.608;2023-07-20T05:13:06;5.03;;;1.65;;
73266;SDS011;61495;53.400;7.608;2023-07-20T05:15:33;4.22;;;1.50;;
73266;SDS011;61495;53.400;7.608;2023-07-20T05:17:59;4.65;;;1.95;;
73266;SDS011;61495;53.400;7.608;2023-07-20T05:20:25;5.22;;;1.70;;
73266;SDS011;61495;53.400;7.608;2023-07-20T05:22:50;4.60;;;2.55;;
73266;SDS011;61495;53.400;7.608;2023-07-20T05:25:17;4.93;;;1.58;;
73266;SDS011;61495;53.400;7.608;2023-07-20T05:27:44;2.67;;;1.25;;
73266;SDS011;61495;53.400;7.608;2023-07-20T05:30:11;3.47;;;1.48;;
73266;SDS011;61495;53.400;7.608;2023-07-20T05:32:36;2.92;;;1.52;;
73266;SDS011;61495;53.400;7.608;2023-07-20T05:35:02;4.25;;;1.92;;
73266;SDS011;61495;53.400;7.608;2023-07-20T05:37:28;3.63;;;1.70;;
73266;SDS011;61495;53.400;7.608;2023-07-20T05:39:53;3.60;;;1.40;;
73266;SDS011;61495;53.400;7.608;2023-07-20T05:42:18;2.50;;;1.35;;
73266;SDS011;61495;53.400;7.608;2023-07-20T05:44:44;3.00;;;1.38;;
73266;SDS011;61495;53.400;7.608;2023-07-20T05:47:09;2.83;;;1.17;;
73266;SDS011;61495;53.400;7.608;2023-07-20T05:49:35;2.95;;;1.27;;
73266;SDS011;61495;53.400;7.608;2023-07-20T05:52:01;4.63;;;1.63;;
73266;SDS011;61495;53.400;7.608;2023-07-20T05:54:26;8.95;;;1.45;;
73266;SDS011;61495;53.400;7.608;2023-07-20T05:56:53;3.75;;;1.42;;
73266;SDS011;61495;53.400;7.608;2023-07-20T05:59:19;3.45;;;1.10;;
73266;SDS011;61495;53.400;7.608;2023-07-20T06:01:45;3.63;;;0.90;;
73266;SDS011;61495;53.400;7.608;2023-07-20T06:04:12;4.22;;;1.35;;
73266;SDS011;61495;53.400;7.608;2023-07-20T06:06:37;3.78;;;1.00;;
73266;SDS011;61495;53.400;7.608;2023-07-20T06:09:02;3.65;;;1.20;;
73266;SDS011;61495;53.400;7.608;2023-07-20T06:11:30;3.35;;;0.80;;
73266;SDS011;61495;53.400;7.608;2023-07-20T06:13:56;5.53;;;1.10;;
73266;SDS011;61495;53.400;7.608;2023-07-20T06:16:22;5.13;;;1.10;;
73266;SDS011;61495;53.400;7.608;2023-07-20T06:18:47;3.88;;;1.10;;
73266;SDS011;61495;53.400;7.608;2023-07-20T06:21:13;4.55;;;0.93;;
73266;SDS011;61495;53.400;7.608;2023-07-20T06:23:38;3.53;;;1.10;;
73266;SDS011;61495;53.400;7.608;2023-07-20T06:26:05;3.95;;;1.10;;
73266;SDS011;61495;53.400;7.608;2023-07-20T06:28:31;4.80;;;1.00;;
73266;SDS011;61495;53.400;7.608;2023-07-20T06:31:00;4.47;;;0.90;;
73266;SDS011;61495;53.400;7.608;2023-07-20T06:33:26;3.78;;;1.23;;
73266;SDS011;61495;53.400;7.608;2023-07-20T06:35:52;6.40;;;1.30;;
73266;SDS011;61495;53.400;7.608;2023-07-20T06:38:18;3.92;;;1.55;;
73266;SDS011;61495;53.400;7.608;2023-07-20T06:40:43;5.38;;;1.10;;
73266;SDS011;61495;53.400;7.608;2023-07-20T06:43:11;4.40;;;1.17;;
73266;SDS011;61495;53.400;7.608;2023-07-20T06:45:36;6.25;;;1.52;;
73266;SDS011;61495;53.400;7.608;2023-07-20T06:48:02;6.13;;;1.50;;
73266;SDS011;61495;53.400;7.608;2023-07-20T06:50:28;7.10;;;1.50;;
73266;SDS011;61495;53.400;7.608;2023-07-20T06:52:53;4.75;;;1.48;;
73266;SDS011;61495;53.400;7.608;2023-07-20T06:55:19;6.55;;;1.48;;
73266;SDS011;61495;53.400;7.608;2023-07-20T06:57:44;6.15;;;1.55;;
73266;SDS011;61495;53.400;7.608;2023-07-20T07:00:10;6.20;;;1.45;;
73266;SDS011;61495;53.400;7.608;2023-07-20T07:02:36;8.68;;;1.60;;
73266;SDS011;61495;53.400;7.608;2023-07-20T07:05:01;7.10;;;1.98;;
73266;SDS011;61495;53.400;7.608;2023-07-20T07:07:27;6.05;;;1.55;;
73266;SDS011;61495;53.400;7.608;2023-07-20T07:09:52;5.45;;;2.08;;
73266;SDS011;61495;53.400;7.608;2023-07-20T07:12:17;6.38;;;1.92;;
73266;SDS011;61495;53.400;7.608;2023-07-20T07:14:43;5.75;;;2.05;;
73266;SDS011;61495;53.400;7.608;2023-07-20T07:17:09;4.53;;;1.45;;
73266;SDS011;61495;53.400;7.608;2023-07-20T07:19:35;4.50;;;1.48;;
73266;SDS011;61495;53.400;7.608;2023-07-20T07:22:01;4.32;;;1.67;;
73266;SDS011;61495;53.400;7.608;2023-07-20T07:24:27;7.70;;;2.00;;
73266;SDS011;61495;53.400;7.608;2023-07-20T07:26:59;5.85;;;2.03;;
73266;SDS011;61495;53.400;7.608;2023-07-20T07:29:24;6.03;;;1.80;;
73266;SDS011;61495;53.400;7.608;2023-07-20T07:31:50;5.15;;;1.48;;
73266;SDS011;61495;53.400;7.608;2023-07-20T07:34:16;4.18;;;1.48;;
73266;SDS011;61495;53.400;7.608;2023-07-20T07:36:41;5.70;;;1.60;;
73266;SDS011;61495;53.400;7.608;2023-07-20T07:39:06;5.45;;;1.90;;
73266;SDS011;61495;53.400;7.608;2023-07-20T07:41:32;4.55;;;1.30;;
73266;SDS011;61495;53.400;7.608;2023-07-20T07:43:57;3.92;;;1.45;;
73266;SDS011;61495;53.400;7.608;2023-07-20T07:46:23;5.10;;;1.38;;
73266;SDS011;61495;53.400;7.608;2023-07-20T07:48:48;5.75;;;1.40;;
73266;SDS011;61495;53.400;7.608;2023-07-20T07:51:14;5.70;;;1.13;;
73266;SDS011;61495;53.400;7.608;2023-07-20T07:53:40;7.72;;;1.20;;
73266;SDS011;61495;53.400;7.608;2023-07-20T07:56:09;4.13;;;1.05;;
73266;SDS011;61495;53.400;7.608;2023-07-20T07:58:34;5.70;;;1.33;;
73266;SDS011;61495;53.400;7.608;2023-07-20T08:01:00;3.45;;;1.05;;
73266;SDS011;61495;53.400;7.608;2023-07-20T08:03:25;3.53;;;0.90;;
73266;SDS011;61495;53.400;7.608;2023-07-20T08:05:53;3.92;;;1.17;;
73266;SDS011;61495;53.400;7.608;2023-07-20T08:08:20;3.85;;;1.00;;
73266;SDS011;61495;53.400;7.608;2023-07-20T08:10:46;2.90;;;1.00;;
73266;SDS011;61495;53.400;7.608;2023-07-20T08:13:12;2.90;;;0.95;;
73266;SDS011;61495;53.400;7.608;2023-07-20T08:15:37;4.28;;;1.15;;
73266;SDS011;61495;53.400;7.608;2023-07-20T08:18:03;5.28;;;0.70;;
73266;SDS011;61495;53.400;7.608;2023-07-20T08:20:29;2.50;;;0.82;;
73266;SDS011;61495;53.400;7.608;2023-07-20T08:22:54;3.58;;;0.90;;
73266;SDS011;61495;53.400;7.608;2023-07-20T08:25:20;3.95;;;0.90;;
73266;SDS011;61495;53.400;7.608;2023-07-20T08:27:46;3.38;;;0.80;;
73266;SDS011;61495;53.400;7.608;2023-07-20T08:30:12;3.10;;;1.08;;
73266;SDS011;61495;53.400;7.608;2023-07-20T08:32:38;2.70;;;1.10;;
73266;SDS011;61495;53.400;7.608;2023-07-20T08:35:03;3.10;;;0.80;;
73266;SDS011;61495;53.400;7.608;2023-07-20T08:37:29;2.85;;;1.08;;
73266;SDS011;61495;53.400;7.608;2023-07-20T08:39:54;2.80;;;0.60;;
73266;SDS011;61495;53.400;7.608;2023-07-20T08:42:19;3.40;;;1.00;;
73266;SDS011;61495;53.400;7.608;2023-07-20T08:44:47;2.92;;;1.08;;
73266;SDS011;61495;53.400;7.608;2023-07-20T08:47:13;3.20;;;0.70;;
73266;SDS011;61495;53.400;7.608;2023-07-20T08:49:41;4.07;;;1.30;;
73266;SDS011;61495;53.400;7.608;2023-07-20T08:52:07;2.88;;;1.10;;
73266;SDS011;61495;53.400;7.608;2023-07-20T08:54:33;4.85;;;0.82;;
73266;SDS011;61495;53.400;7.608;2023-07-20T08:57:03;3.50;;;1.02;;
73266;SDS011;61495;53.400;7.608;2023-07-20T08:59:29;2.72;;;0.60;;
73266;SDS011;61495;53.400;7.608;2023-07-20T09:01:59;3.33;;;0.70;;
73266;SDS011;61495;53.400;7.608;2023-07-20T09:04:25;4.05;;;1.08;;
73266;SDS011;61495;53.400;7.608;2023-07-20T09:06:50;3.53;;;0.70;;
73266;SDS011;61495;53.400;7.608;2023-07-20T09:09:17;3.00;;;0.65;;
73266;SDS011;61495;53.400;7.608;2023-07-20T09:11:42;2.60;;;0.63;;
73266;SDS011;61495;53.400;7.608;2023-07-20T09:14:09;4.47;;;0.70;;
73266;SDS011;61495;53.400;7.608;2023-07-20T09:16:52;3.63;;;0.65;;
73266;SDS011;61495;53.400;7.608;2023-07-20T09:19:19;2.42;;;0.90;;
73266;SDS011;61495;53.400;7.608;2023-07-20T09:21:49;5.05;;;0.70;;
73266;SDS011;61495;53.400;7.608;2023-07-20T09:24:17;1.60;;;0.70;;
73266;SDS011;61495;53.400;7.608;2023-07-20T09:26:43;3.30;;;0.70;;
73266;SDS011;61495;53.400;7.608;2023-07-20T09:29:10;2.83;;;0.73;;
73266;SDS011;61495;53.400;7.608;2023-07-20T09:31:36;3.47;;;0.68;;
73266;SDS011;61495;53.400;7.608;2023-07-20T09:34:01;3.22;;;0.80;;
73266;SDS011;61495;53.400;7.608;2023-07-20T09:36:28;2.97;;;0.85;;
73266;SDS011;61495;53.400;7.608;2023-07-20T09:38:54;4.25;;;0.80;;
73266;SDS011;61495;53.400;7.608;2023-07-20T09:41:20;2.20;;;0.70;;
73266;SDS011;61495;53.400;7.608;2023-07-20T09:43:46;3.05;;;0.70;;
73266;SDS011;61495;53.400;7.608;2023-07-20T09:46:11;2.50;;;0.63;;
73266;SDS011;61495;53.400;7.608;2023-07-20T09:48:37;4.35;;;0.80;;
73266;SDS011;61495;53.400;7.608;2023-07-20T09:51:03;2.42;;;1.10;;
73266;SDS011;61495;53.400;7.608;2023-07-20T09:53:31;2.45;;;0.73;;
73266;SDS011;61495;53.400;7.608;2023-07-20T09:55:58;5.28;;;0.70;;
73266;SDS011;61495;53.400;7.608;2023-07-20T09:58:25;2.75;;;0.60;;
73266;SDS011;61495;53.400;7.608;2023-07-20T10:00:51;2.47;;;0.70;;
73266;SDS011;61495;53.400;7.608;2023-07-20T10:03:24;4.43;;;1.02;;
73266;SDS011;61495;53.400;7.608;2023-07-20T10:06:05;3.85;;;0.98;;
73266;SDS011;61495;53.400;7.608;2023-07-20T10:08:34;3.85;;;0.80;;
73266;SDS011;61495;53.400;7.608;2023-07-20T10:11:07;6.20;;;1.23;;
73266;SDS011;61495;53.400;7.608;2023-07-20T10:13:32;2.58;;;0.70;;
73266;SDS011;61495;53.400;7.608;2023-07-20T10:16:05;3.50;;;1.00;;
73266;SDS011;61495;53.400;7.608;2023-07-20T10:18:46;4.68;;;0.80;;
73266;SDS011;61495;53.400;7.608;2023-07-20T10:21:26;3.42;;;1.00;;
73266;SDS011;61495;53.400;7.608;2023-07-20T10:23:54;3.95;;;0.68;;
73266;SDS011;61495;53.400;7.608;2023-07-20T10:26:21;3.67;;;0.80;;
73266;SDS011;61495;53.400;7.608;2023-07-20T10:28:46;4.32;;;0.80;;
73266;SDS011;61495;53.400;7.608;2023-07-20T10:31:12;4.78;;;0.82;;
73266;SDS011;61495;53.400;7.608;2023-07-20T10:33:40;6.45;;;1.00;;
73266;SDS011;61495;53.400;7.608;2023-07-20T10:36:06;3.72;;;1.23;;
73266;SDS011;61495;53.400;7.608;2023-07-20T10:41:16;4.93;;;1.00;;
73266;SDS011;61495;53.400;7.608;2023-07-20T10:43:43;4.45;;;0.88;;
73266;SDS011;61495;53.400;7.608;2023-07-20T10:46:13;3.55;;;1.00;;
73266;SDS011;61495;53.400;7.608;2023-07-20T10:51:39;6.43;;;0.98;;
73266;SDS011;61495;53.400;7.608;2023-07-20T10:56:44;5.13;;;0.70;;
73266;SDS011;61495;53.400;7.608;2023-07-20T11:01:54;2.40;;;0.70;;
73266;SDS011;61495;53.400;7.608;2023-07-20T11:04:44;3.75;;;0.90;;
73266;SDS011;61495;53.400;7.608;2023-07-20T11:07:10;3.78;;;1.00;;
73266;SDS011;61495;53.400;7.608;2023-07-20T11:09:56;2.78;;;0.70;;
73266;SDS011;61495;53.400;7.608;2023-07-20T11:12:38;3.08;;;1.00;;
73266;SDS011;61495;53.400;7.608;2023-07-20T11:15:04;2.65;;;0.95;;
73266;SDS011;61495;53.400;7.608;2023-07-20T11:17:30;3.55;;;0.73;;
73266;SDS011;61495;53.400;7.608;2023-07-20T11:19:56;4.35;;;1.17;;
73266;SDS011;61495;53.400;7.608;2023-07-20T11:22:22;3.53;;;0.90;;
73266;SDS011;61495;53.400;7.608;2023-07-20T11:24:48;1.80;;;0.70;;
73266;SDS011;61495;53.400;7.608;2023-07-20T11:27:14;3.67;;;0.80;;
73266;SDS011;61495;53.400;7.608;2023-07-20T11:29:40;4.07;;;0.93;;
73266;SDS011;61495;53.400;7.608;2023-07-20T11:32:05;3.72;;;0.85;;
73266;SDS011;61495;53.400;7.608;2023-07-20T11:34:31;4.22;;;1.00;;
73266;SDS011;61495;53.400;7.608;2023-07-20T11:36:58;4.03;;;1.02;;
73266;SDS011;61495;53.400;7.608;2023-07-20T11:39:23;4.05;;;1.08;;
73266;SDS011;61495;53.400;7.608;2023-07-20T11:41:54;4.22;;;0.85;;
73266;SDS011;61495;53.400;7.608;2023-07-20T11:44:24;3.33;;;0.88;;
73266;SDS011;61495;53.400;7.608;2023-07-20T11:47:08;3.90;;;0.63;;
73266;SDS011;61495;53.400;7.608;2023-07-20T11:49:35;3.53;;;0.88;;
73266;SDS011;61495;53.400;7.608;2023-07-20T11:52:02;1.75;;;0.60;;
73266;SDS011;61495;53.400;7.608;2023-07-20T11:54:33;4.35;;;1.10;;
73266;SDS011;61495;53.400;7.608;2023-07-20T11:57:02;4.55;;;0.90;;
73266;SDS011;61495;53.400;7.608;2023-07-20T11:59:28;2.85;;;0.80;;
73266;SDS011;61495;53.400;7.608;2023-07-20T12:01:53;3.25;;;0.95;;
73266;SDS011;61495;53.400;7.608;2023-07-20T12:04:19;3.05;;;1.00;;
73266;SDS011;61495;53.400;7.608;2023-07-20T12:06:47;1.58;;;0.52;;
73266;SDS011;61495;53.400;7.608;2023-07-20T12:09:16;4.35;;;0.70;;
73266;SDS011;61495;53.400;7.608;2023-07-20T12:11:42;3.58;;;1.20;;
73266;SDS011;61495;53.400;7.608;2023-07-20T12:14:10;5.80;;;0.82;;
73266;SDS011;61495;53.400;7.608;2023-07-20T12:16:36;2.42;;;0.98;;
73266;SDS011;61495;53.400;7.608;2023-07-20T12:19:09;3.17;;;0.90;;
73266;SDS011;61495;53.400;7.608;2023-07-20T12:21:37;2.67;;;0.80;;
73266;SDS011;61495;53.400;7.608;2023-07-20T12:24:05;4.15;;;1.00;;
73266;SDS011;61495;53.400;7.608;2023-07-20T12:26:31;4.15;;;1.00;;
73266;SDS011;61495;53.400;7.608;2023-07-20T12:28:57;3.65;;;0.80;;
73266;SDS011;61495;53.400;7.608;2023-07-20T12:31:23;3.67;;;0.95;;
73266;SDS011;61495;53.400;7.608;2023-07-20T12:33:50;3.35;;;0.77;;
73266;SDS011;61495;53.400;7.608;2023-07-20T12:36:16;3.70;;;0.70;;
73266;SDS011;61495;53.400;7.608;2023-07-20T12:38:42;2.30;;;0.73;;
73266;SDS011;61495;53.400;7.608;2023-07-20T12:41:09;2.78;;;0.70;;
73266;SDS011;61495;53.400;7.608;2023-07-20T12:43:37;2.80;;;0.77;;
73266;SDS011;61495;53.400;7.608;2023-07-20T12:46:03;2.67;;;1.30;;
73266;SDS011;61495;53.400;7.608;2023-07-20T12:48:28;3.70;;;0.80;;
73266;SDS011;61495;53.400;7.608;2023-07-20T12:50:54;5.47;;;1.48;;
73266;SDS011;61495;53.400;7.608;2023-07-20T12:53:20;2.80;;;0.65;;
73266;SDS011;61495;53.400;7.608;2023-07-20T12:55:45;3.83;;;0.90;;
73266;SDS011;61495;53.400;7.608;2023-07-20T12:58:11;4.68;;;0.70;;
73266;SDS011;61495;53.400;7.608;2023-07-20T13:00:37;2.35;;;0.80;;
73266;SDS011;61495;53.400;7.608;2023-07-20T13:03:02;3.13;;;0.80;;
73266;SDS011;61495;53.400;7.608;2023-07-20T13:05:30;2.53;;;0.93;;
73266;SDS011;61495;53.400;7.608;2023-07-20T13:07:57;2.42;;;0.77;;
73266;SDS011;61495;53.400;7.608;2023-07-20T13:10:23;3.88;;;0.90;;
73266;SDS011;61495;53.400;7.608;2023-07-20T13:12:48;2.60;;;0.80;;
73266;SDS011;61495;53.400;7.608;2023-07-20T13:15:14;3.33;;;0.90;;
73266;SDS011;61495;53.400;7.608;2023-07-20T13:17:39;2.50;;;1.00;;
73266;SDS011;61495;53.400;7.608;2023-07-20T13:20:05;3.67;;;1.00;;
73266;SDS011;61495;53.400;7.608;2023-07-20T13:22:33;5.50;;;0.90;;
73266;SDS011;61495;53.400;7.608;2023-07-20T13:24:59;2.85;;;0.80;;
73266;SDS011;61495;53.400;7.608;2023-07-20T13:27:24;4.82;;;0.90;;
73266;SDS011;61495;53.400;7.608;2023-07-20T13:29:53;4.85;;;1.05;;
73266;SDS011;61495;53.400;7.608;2023-07-20T13:32:18;2.38;;;0.70;;
73266;SDS011;61495;53.400;7.608;2023-07-20T13:34:44;3.13;;;0.70;;
73266;SDS011;61495;53.400;7.608;2023-07-20T13:37:10;2.78;;;0.70;;
73266;SDS011;61495;53.400;7.608;2023-07-20T13:39:36;3.70;;;0.80;;
73266;SDS011;61495;53.400;7.608;2023-07-20T13:42:02;4.18;;;1.67;;
73266;SDS011;61495;53.400;7.608;2023-07-20T13:44:30;2.88;;;0.60;;
73266;SDS011;61495;53.400;7.608;2023-07-20T13:46:59;2.55;;;0.85;;
73266;SDS011;61495;53.400;7.608;2023-07-20T13:49:26;1.58;;;0.52;;
73266;SDS011;61495;53.400;7.608;2023-07-20T13:51:51;3.15;;;0.65;;
73266;SDS011;61495;53.400;7.608;2023-07-20T13:54:17;4.00;;;0.77;;
73266;SDS011;61495;53.400;7.608;2023-07-20T13:56:42;2.80;;;0.82;;
73266;SDS011;61495;53.400;7.608;2023-07-20T13:59:07;3.08;;;1.00;;
73266;SDS011;61495;53.400;7.608;2023-07-20T14:01:33;3.33;;;0.75;;
73266;SDS011;61495;53.400;7.608;2023-07-20T14:03:59;5.75;;;0.90;;
73266;SDS011;61495;53.400;7.608;2023-07-20T14:06:25;3.28;;;0.82;;
73266;SDS011;61495;53.400;7.608;2023-07-20T14:08:50;2.55;;;0.70;;
73266;SDS011;61495;53.400;7.608;2023-07-20T14:11:17;2.42;;;0.80;;
73266;SDS011;61495;53.400;7.608;2023-07-20T14:13:43;2.65;;;1.10;;
73266;SDS011;61495;53.400;7.608;2023-07-20T14:16:09;2.97;;;0.68;;
73266;SDS011;61495;53.400;7.608;2023-07-20T14:18:34;2.72;;;0.80;;
73266;SDS011;61495;53.400;7.608;2023-07-20T14:21:00;3.08;;;0.75;;
73266;SDS011;61495;53.400;7.608;2023-07-20T14:23:28;2.22;;;0.90;;
73266;SDS011;61495;53.400;7.608;2023-07-20T14:25:53;3.28;;;0.73;;
73266;SDS011;61495;53.400;7.608;2023-07-20T14:28:19;2.00;;;0.98;;
73266;SDS011;61495;53.400;7.608;2023-07-20T14:30:45;3.47;;;0.80;;
73266;SDS011;61495;53.400;7.608;2023-07-20T14:33:10;3.17;;;0.93;;
73266;SDS011;61495;53.400;7.608;2023-07-20T14:35:36;2.95;;;0.70;;
73266;SDS011;61495;53.400;7.608;2023-07-20T14:38:02;5.03;;;0.95;;
73266;SDS011;61495;53.400;7.608;2023-07-20T14:40:27;1.73;;;0.65;;
73266;SDS011;61495;53.400;7.608;2023-07-20T14:42:53;2.58;;;1.02;;
73266;SDS011;61495;53.400;7.608;2023-07-20T14:45:20;3.13;;;0.70;;
73266;SDS011;61495;53.400;7.608;2023-07-20T14:47:45;2.78;;;0.70;;
73266;SDS011;61495;53.400;7.608;2023-07-20T14:50:10;2.33;;;0.63;;
73266;SDS011;61495;53.400;7.608;2023-07-20T14:52:36;2.65;;;0.70;;
73266;SDS011;61495;53.400;7.608;2023-07-20T14:55:02;3.08;;;1.00;;
73266;SDS011;61495;53.400;7.608;2023-07-20T14:57:27;2.75;;;0.75;;
73266;SDS011;61495;53.400;7.608;2023-07-20T14:59:53;2.22;;;0.90;;
73266;SDS011;61495;53.400;7.608;2023-07-20T15:02:18;1.92;;;0.70;;
73266;SDS011;61495;53.400;7.608;2023-07-20T15:04:50;1.75;;;0.60;;
73266;SDS011;61495;53.400;7.608;2023-07-20T15:07:16;2.45;;;0.57;;